Time;durP1;ratioP1;P1;durP2;ratioP2;P2;SDS_P1;SDS_P2;PMS_P1;PMS_P2;Temp;Humidity;BMP_temperature;BMP_pressure;BME280_temperature;BME280_humidity;BME280_pressure;Samples;Min_cycle;Max_cycle;Signal;HPM_P1;HPM_P2
2023/09/16 00:00:08;;;;;;;1999.90;999.90;;;20.40;99.90;;;;;;5055514;28;20021;-71
2023/09/16 00:02:34;;;;;;;1999.90;999.90;;;20.50;99.90;;;;;;5055672;28;20025;-77
2023/09/16 00:05:00;;;;;;;1999.90;999.90;;;20.50;99.90;;;;;;5055354;28;20041;-71
2023/09/16 00:07:26;;;;;;;1999.90;999.90;;;20.60;99.90;;;;;;5052725;28;20094;-77
2023/09/16 00:09:56;;;;;;;1999.90;999.90;;;20.60;99.90;;;;;;5046312;28;20021;-72
2023/09/16 00:12:23;;;;;;;1999.90;999.90;;;20.60;99.90;;;;;;5053038;28;20025;-71
2023/09/16 00:14:48;;;;;;;1999.90;999.90;;;20.60;99.90;;;;;;5055229;28;20108;-77
2023/09/16 00:17:14;;;;;;;1999.90;999.90;;;20.60;99.90;;;;;;5055295;28;20096;-76
2023/09/16 00:19:39;;;;;;;1999.90;999.90;;;20.60;99.90;;;;;;5055624;28;20044;-77
2023/09/16 00:22:10;;;;;;;1999.90;999.90;;;20.60;99.90;;;;;;5051747;28;20021;-77
2023/09/16 00:24:40;;;;;;;1999.90;999.90;;;20.40;99.90;;;;;;5050517;28;20025;-70
2023/09/16 00:27:07;;;;;;;1999.90;999.90;;;20.40;99.90;;;;;;5055232;28;20103;-77
2023/09/16 00:29:33;;;;;;;1999.90;999.90;;;20.40;99.90;;;;;;5055275;28;20033;-77
2023/09/16 00:32:01;;;;;;;1999.90;999.90;;;20.40;99.90;;;;;;5053615;28;20518;-71
2023/09/16 00:34:26;;;;;;;1999.90;999.90;;;20.30;99.90;;;;;;5054853;28;20456;-71
2023/09/16 00:36:53;;;;;;;1999.90;999.90;;;20.30;99.90;;;;;;5055081;28;20052;-71
2023/09/16 00:39:18;;;;;;;1999.90;999.90;;;20.30;99.90;;;;;;5054978;28;20033;-77
2023/09/16 00:41:44;;;;;;;1999.90;999.90;;;20.30;99.90;;;;;;5054987;28;20399;-77
2023/09/16 00:44:10;;;;;;;1999.90;999.90;;;20.30;99.90;;;;;;5054837;28;20033;-77
2023/09/16 00:46:37;;;;;;;1999.90;999.90;;;20.30;99.90;;;;;;5054850;28;20495;-77
2023/09/16 00:49:03;;;;;;;1999.90;999.90;;;20.30;99.90;;;;;;5054617;28;20056;-71
2023/09/16 00:51:30;;;;;;;1999.90;999.90;;;20.30;99.90;;;;;;5054452;28;20029;-72
2023/09/16 00:53:56;;;;;;;1999.90;999.90;;;20.30;99.90;;;;;;5054650;28;20021;-77
2023/09/16 00:56:24;;;;;;;1999.90;999.90;;;20.30;99.90;;;;;;5054792;28;20043;-77
2023/09/16 00:58:50;;;;;;;1999.90;999.90;;;20.30;99.90;;;;;;5054622;28;20044;-77
2023/09/16 01:01:17;;;;;;;1999.90;999.90;;;20.30;99.90;;;;;;5054404;28;20033;-72
2023/09/16 01:03:42;;;;;;;1999.90;999.90;;;20.30;99.90;;;;;;5053353;28;20032;-73
2023/09/16 01:06:10;;;;;;;1999.90;999.90;;;20.30;99.90;;;;;;5054499;28;20163;-77
2023/09/16 01:08:35;;;;;;;1999.90;999.90;;;20.30;99.90;;;;;;5046115;28;20026;-77
2023/09/16 01:11:05;;;;;;;1999.90;999.90;;;20.20;99.90;;;;;;5047773;28;20028;-77
2023/09/16 01:13:33;;;;;;;1999.90;999.90;;;20.20;99.90;;;;;;5054306;28;20048;-72
2023/09/16 01:16:37;;;;;;;1999.90;999.90;;;20.30;99.90;;;;;;5054057;28;20025;-72
2023/09/16 01:19:29;;;;;;;1999.90;999.90;;;20.30;99.90;;;;;;5040847;28;20381;-77
2023/09/16 01:21:56;;;;;;;1999.90;999.90;;;20.20;99.90;;;;;;5050525;28;20537;-73
2023/09/16 01:24:25;;;;;;;1999.90;999.90;;;20.20;99.90;;;;;;5045019;28;20116;-73
2023/09/16 01:26:50;;;;;;;1999.90;999.90;;;20.20;99.90;;;;;;5034248;28;20037;-72
2023/09/16 01:29:18;;;;;;;1999.90;999.90;;;20.10;99.90;;;;;;5033541;28;20404;-72
2023/09/16 01:31:45;;;;;;;1999.90;999.90;;;20.10;99.90;;;;;;5046532;28;20147;-72
2023/09/16 01:34:32;;;;;;;1999.90;999.90;;;20.10;99.90;;;;;;5054092;28;20032;-77
2023/09/16 01:36:59;;;;;;;1999.90;999.90;;;20.10;99.90;;;;;;5053886;28;20025;-78
2023/09/16 01:39:29;;;;;;;1999.90;999.90;;;20.20;99.90;;;;;;5053671;28;20021;-77
2023/09/16 01:41:56;;;;;;;1999.90;999.90;;;20.10;99.90;;;;;;5054116;28;20036;-73
2023/09/16 01:44:22;;;;;;;1999.90;999.90;;;20.20;99.90;;;;;;5053569;28;20548;-78
2023/09/16 01:46:47;;;;;;;1999.90;999.90;;;20.10;99.90;;;;;;5052062;28;20040;-78
2023/09/16 01:49:13;;;;;;;1999.90;999.90;;;20.10;99.90;;;;;;5053284;28;20028;-78
2023/09/16 01:51:39;;;;;;;1999.90;999.90;;;20.00;99.90;;;;;;5053648;28;20381;-73
2023/09/16 01:54:04;;;;;;;1999.90;999.90;;;20.00;99.90;;;;;;5053559;28;20053;-73
2023/09/16 01:56:30;;;;;;;1999.90;999.90;;;20.00;99.90;;;;;;5053209;28;20400;-73
2023/09/16 01:58:56;;;;;;;1999.90;999.90;;;20.00;99.90;;;;;;5053606;28;20082;-78
2023/09/16 02:01:21;;;;;;;1999.90;999.90;;;20.00;99.90;;;;;;5053220;28;20029;-77
2023/09/16 02:03:47;;;;;;;1999.90;999.90;;;20.00;99.90;;;;;;5053166;28;20098;-78
2023/09/16 02:06:13;;;;;;;1999.90;999.90;;;20.10;99.90;;;;;;5053269;28;20033;-73
2023/09/16 02:08:39;;;;;;;1999.90;999.90;;;20.10;99.90;;;;;;5044676;28;20029;-73
2023/09/16 02:11:05;;;;;;;1999.90;999.90;;;20.00;99.90;;;;;;5046635;28;20021;-73
2023/09/16 02:13:32;;;;;;;1999.90;999.90;;;20.00;99.90;;;;;;5053415;28;20024;-78
2023/09/16 02:15:59;;;;;;;1999.90;999.90;;;20.00;99.90;;;;;;5053223;28;20021;-78
2023/09/16 02:18:25;;;;;;;1999.90;999.90;;;20.00;99.90;;;;;;5053426;28;20065;-73
2023/09/16 02:20:50;;;;;;;1999.90;999.90;;;19.90;99.90;;;;;;5052914;28;20118;-73
2023/09/16 02:23:16;;;;;;;1999.90;999.90;;;19.90;99.90;;;;;;5044969;28;20175;-78
2023/09/16 02:25:41;;;;;;;1999.90;999.90;;;19.90;99.90;;;;;;5037833;28;20119;-78
2023/09/16 02:28:07;;;;;;;1999.90;999.90;;;19.90;99.90;;;;;;5033106;28;20030;-78
2023/09/16 02:30:33;;;;;;;1999.90;999.90;;;19.90;99.90;;;;;;5035901;28;20538;-78
2023/09/16 02:32:58;;;;;;;1999.90;999.90;;;19.90;99.90;;;;;;5052674;28;20048;-73
2023/09/16 02:35:24;;;;;;;1999.90;999.90;;;19.90;99.90;;;;;;5052805;28;20021;-78
2023/09/16 02:37:49;;;;;;;1999.90;999.90;;;20.00;99.90;;;;;;5053042;28;20498;-78
2023/09/16 02:40:15;;;;;;;1999.90;999.90;;;20.10;99.90;;;;;;5052793;28;20036;-73
2023/09/16 02:42:41;;;;;;;1999.90;999.90;;;20.10;99.90;;;;;;5053048;28;20100;-72
2023/09/16 02:45:07;;;;;;;1999.90;999.90;;;20.10;99.90;;;;;;5052820;28;20052;-73
2023/09/16 02:47:33;;;;;;;1999.90;999.90;;;20.10;99.90;;;;;;5052569;28;20079;-73
2023/09/16 02:50:00;;;;;;;1999.90;999.90;;;20.10;99.90;;;;;;5052598;28;20075;-78
2023/09/16 02:52:25;;;;;;;1999.90;999.90;;;20.10;99.90;;;;;;5052627;28;20036;-78
2023/09/16 02:54:51;;;;;;;1999.90;999.90;;;20.10;99.90;;;;;;5052673;28;20100;-78
2023/09/16 02:57:17;;;;;;;1999.90;999.90;;;20.10;99.90;;;;;;5052804;28;20029;-71
2023/09/16 02:59:42;;;;;;;1999.90;999.90;;;20.10;99.90;;;;;;5053874;28;20136;-72
2023/09/16 03:02:08;;;;;;;1999.90;999.90;;;20.10;99.90;;;;;;5056749;28;20025;-77
2023/09/16 03:04:33;;;;;;;1999.90;999.90;;;20.10;99.90;;;;;;5056191;28;20128;-78
2023/09/16 03:06:59;;;;;;;1999.90;999.90;;;20.10;99.90;;;;;;5056470;28;20056;-77
2023/09/16 03:09:25;;;;;;;1999.90;999.90;;;20.10;99.90;;;;;;5047624;28;20029;-78
2023/09/16 03:11:50;;;;;;;1999.90;999.90;;;20.10;99.90;;;;;;5051423;28;20036;-77
2023/09/16 03:14:16;;;;;;;1999.90;999.90;;;20.10;99.90;;;;;;5055131;28;20462;-72
2023/09/16 03:16:42;;;;;;;1999.90;999.90;;;20.10;99.90;;;;;;5056359;28;20033;-77
2023/09/16 03:19:08;;;;;;;1999.90;999.90;;;20.10;99.90;;;;;;5056181;28;20108;-77
2023/09/16 03:21:34;;;;;;;1999.90;999.90;;;20.10;99.90;;;;;;5055290;28;20104;-77
2023/09/16 03:23:59;;;;;;;1999.90;999.90;;;20.10;99.90;;;;;;5048376;28;20068;-72
2023/09/16 03:26:26;;;;;;;1999.90;999.90;;;20.10;99.90;;;;;;5036278;28;20053;-78
2023/09/16 03:28:53;;;;;;;1999.90;999.90;;;20.10;99.90;;;;;;5036147;28;20116;-77
2023/09/16 03:31:19;;;;;;;1999.90;999.90;;;20.10;99.90;;;;;;5045689;28;20021;-77
2023/09/16 03:33:44;;;;;;;1999.90;999.90;;;20.10;99.90;;;;;;5056157;28;20036;-78
2023/09/16 03:36:10;;;;;;;1999.90;999.90;;;20.00;99.90;;;;;;5055963;28;20056;-78
2023/09/16 03:38:45;;;;;;;1999.90;999.90;;;20.00;99.90;;;;;;5056210;28;20412;-70
2023/09/16 03:41:11;;;;;;;1999.90;999.90;;;20.00;99.90;;;;;;5056152;28;20033;-77
2023/09/16 03:43:36;;;;;;;1999.90;999.90;;;20.00;99.90;;;;;;5056178;28;20036;-70
2023/09/16 03:46:02;;;;;;;1999.90;999.90;;;20.00;99.90;;;;;;5055990;28;20492;-70
2023/09/16 03:48:27;;;;;;;1999.90;999.90;;;20.00;99.90;;;;;;5055697;28;20032;-70
2023/09/16 03:50:53;;;;;;;1999.90;999.90;;;19.90;99.90;;;;;;5055987;28;20507;-70
2023/09/16 03:53:21;;;;;;;1999.90;999.90;;;20.00;99.90;;;;;;5055799;28;20103;-71
2023/09/16 03:55:47;;;;;;;1999.90;999.90;;;20.00;99.90;;;;;;5055901;28;20028;-70
2023/09/16 03:58:13;;;;;;;1999.90;999.90;;;19.90;99.90;;;;;;5055311;28;20029;-78
2023/09/16 04:00:38;;;;;;;1999.90;999.90;;;19.90;99.90;;;;;;5054990;28;20025;-77
2023/09/16 04:03:04;;;;;;;1999.90;999.90;;;20.00;99.90;;;;;;5055424;28;20029;-71
2023/09/16 04:05:30;;;;;;;1999.90;999.90;;;19.90;99.90;;;;;;5055661;28;20120;-71
2023/09/16 04:07:55;;;;;;;1999.90;999.90;;;19.90;99.90;;;;;;5051848;28;20381;-70
2023/09/16 04:10:21;;;;;;;1999.90;999.90;;;19.90;99.90;;;;;;5045415;28;20021;-78
2023/09/16 04:12:46;;;;;;;1999.90;999.90;;;19.90;99.90;;;;;;5055075;28;20026;-77
2023/09/16 04:15:12;;;;;;;1999.90;999.90;;;20.00;99.90;;;;;;5054964;28;20036;-71
2023/09/16 04:17:37;;;;;;;1999.90;999.90;;;20.00;99.90;;;;;;5047762;28;20044;-78
2023/09/16 04:20:07;;;;;;;1999.90;999.90;;;19.90;99.90;;;;;;5044470;28;20096;-78
2023/09/16 04:22:32;;;;;;;1999.90;999.90;;;19.90;99.90;;;;;;5038689;28;20384;-77
2023/09/16 04:24:58;;;;;;;1999.90;999.90;;;19.90;99.90;;;;;;5044131;28;20036;-78
2023/09/16 04:27:24;;;;;;;1999.90;999.90;;;19.90;99.90;;;;;;5035488;28;20036;-78
2023/09/16 04:29:49;;;;;;;1999.90;999.90;;;19.90;99.90;;;;;;5035698;28;20057;-71
2023/09/16 04:32:15;;;;;;;1999.90;999.90;;;19.80;99.90;;;;;;5052138;28;20078;-71
2023/09/16 04:34:41;;;;;;;1999.90;999.90;;;19.80;99.90;;;;;;5055024;28;20017;-77
2023/09/16 04:37:08;;;;;;;1999.90;999.90;;;19.80;99.90;;;;;;5053670;28;20029;-77
2023/09/16 04:39:34;;;;;;;1999.90;999.90;;;19.90;99.90;;;;;;5055202;28;20025;-71
2023/09/16 04:42:02;;;;;;;1999.90;999.90;;;19.90;99.90;;;;;;5055035;28;20033;-72
2023/09/16 04:44:28;;;;;;;1999.90;999.90;;;19.90;99.90;;;;;;5053369;28;20024;-72
2023/09/16 04:46:54;;;;;;;1999.90;999.90;;;19.90;99.90;;;;;;5046308;28;20040;-72
2023/09/16 04:49:20;;;;;;;1999.90;999.90;;;19.90;99.90;;;;;;5034741;28;20396;-77
2023/09/16 04:51:46;;;;;;;1999.90;999.90;;;19.90;99.90;;;;;;5035099;28;20033;-72
2023/09/16 04:54:11;;;;;;;1999.90;999.90;;;19.90;99.90;;;;;;5033656;28;20017;-72
2023/09/16 04:56:37;;;;;;;1999.90;999.90;;;20.00;99.90;;;;;;5034751;28;20033;-72
2023/09/16 04:59:04;;;;;;;1999.90;999.90;;;19.90;99.90;;;;;;5035152;28;20029;-77
2023/09/16 05:01:30;;;;;;;1999.90;999.90;;;20.00;99.90;;;;;;5054560;28;20468;-77
2023/09/16 05:03:56;;;;;;;1999.90;999.90;;;20.00;99.90;;;;;;5054364;28;20083;-77
2023/09/16 05:06:22;;;;;;;1999.90;999.90;;;20.00;99.90;;;;;;5053403;28;20412;-77
2023/09/16 05:08:48;;;;;;;1999.90;999.90;;;20.00;99.90;;;;;;5045587;28;20029;-73
2023/09/16 05:11:14;;;;;;;1999.90;999.90;;;20.00;99.90;;;;;;5049347;28;20045;-77
2023/09/16 05:13:40;;;;;;;1999.90;999.90;;;20.00;99.90;;;;;;5053574;28;20048;-78
2023/09/16 05:16:08;;;;;;;1999.90;999.90;;;20.00;99.90;;;;;;5054288;28;20021;-77
2023/09/16 05:18:34;;;;;;;1999.90;999.90;;;20.00;99.90;;;;;;5053927;28;20064;-73
2023/09/16 05:21:00;;;;;;;1999.90;999.90;;;20.00;99.90;;;;;;5054528;28;20055;-73
2023/09/16 05:23:25;;;;;;;1999.90;999.90;;;20.00;99.90;;;;;;5045100;28;20100;-73
2023/09/16 05:25:51;;;;;;;1999.90;999.90;;;20.00;99.90;;;;;;5037932;28;20037;-77
2023/09/16 05:28:17;;;;;;;1999.90;999.90;;;20.00;99.90;;;;;;5034060;28;20034;-77
2023/09/16 05:30:43;;;;;;;1999.90;999.90;;;20.00;99.90;;;;;;5038562;28;20017;-77
2023/09/16 05:33:10;;;;;;;1999.90;999.90;;;20.10;99.90;;;;;;5053880;28;20021;-73
2023/09/16 05:35:37;;;;;;;1999.90;999.90;;;20.00;99.90;;;;;;5053710;28;20104;-73
2023/09/16 05:38:03;;;;;;;1999.90;999.90;;;20.00;99.90;;;;;;5045422;28;20017;-73
2023/09/16 05:40:29;;;;;;;1999.90;999.90;;;20.00;99.90;;;;;;5035746;28;20021;-73
2023/09/16 05:42:54;;;;;;;1999.90;999.90;;;20.10;99.90;;;;;;5033988;28;20370;-77
2023/09/16 05:45:20;;;;;;;1999.90;999.90;;;20.00;99.90;;;;;;5034037;28;20025;-72
2023/09/16 05:47:48;;;;;;;1999.90;999.90;;;20.00;99.90;;;;;;5033742;28;20064;-73
2023/09/16 05:50:14;;;;;;;1999.90;999.90;;;20.10;99.90;;;;;;5033753;28;20040;-77
2023/09/16 05:52:39;;;;;;;1999.90;999.90;;;20.10;99.90;;;;;;5033606;28;20100;-78
2023/09/16 05:55:05;;;;;;;1999.90;999.90;;;20.00;99.90;;;;;;5041164;28;20032;-77
2023/09/16 05:57:31;;;;;;;1999.90;999.90;;;20.00;99.90;;;;;;5038293;28;20037;-77
2023/09/16 05:59:56;;;;;;;1999.90;999.90;;;20.00;99.90;;;;;;5041298;28;20068;-72
2023/09/16 06:02:23;;;;;;;1999.90;999.90;;;20.10;99.90;;;;;;5053676;28;20029;-72
2023/09/16 06:04:49;;;;;;;1999.90;999.90;;;20.00;99.90;;;;;;5053135;28;20045;-77
2023/09/16 06:07:15;;;;;;;1999.90;999.90;;;20.00;99.90;;;;;;5051595;28;20033;-78
2023/09/16 06:09:41;;;;;;;1999.90;999.90;;;20.00;99.90;;;;;;5045535;28;20407;-78
2023/09/16 06:12:09;;;;;;;1999.90;999.90;;;20.00;99.90;;;;;;5048998;28;20072;-72
2023/09/16 06:14:35;;;;;;;1999.90;999.90;;;20.10;99.90;;;;;;5052950;28;20035;-72
2023/09/16 06:17:01;;;;;;;1999.90;999.90;;;20.10;99.90;;;;;;5053070;28;20112;-78
2023/09/16 06:19:28;;;;;;;1999.90;999.90;;;20.10;99.90;;;;;;5053088;28;20099;-78
2023/09/16 06:21:54;;;;;;;1999.90;999.90;;;20.20;99.90;;;;;;5050808;28;20029;-78
2023/09/16 06:24:21;;;;;;;1999.90;999.90;;;20.20;99.90;;;;;;5044001;28;20069;-78
2023/09/16 06:26:47;;;;;;;1999.90;999.90;;;20.10;99.90;;;;;;5033052;28;20029;-72
2023/09/16 06:29:12;;;;;;;1999.90;999.90;;;20.20;99.90;;;;;;5033417;28;20071;-73
2023/09/16 06:31:38;;;;;;;1999.90;999.90;;;20.20;99.90;;;;;;5039169;28;20112;-78
2023/09/16 06:34:05;;;;;;;1999.90;999.90;;;20.20;99.90;;;;;;5051344;28;20025;-78
2023/09/16 06:36:31;;;;;;;1999.90;999.90;;;20.20;99.90;;;;;;5053009;28;20449;-78
2023/09/16 06:38:57;;;;;;;1999.90;999.90;;;20.30;99.90;;;;;;5052931;28;20032;-73
2023/09/16 06:41:23;;;;;;;1999.90;999.90;;;20.20;99.90;;;;;;5052736;28;20396;-72
2023/09/16 06:43:48;;;;;;;1999.90;999.90;;;20.30;99.90;;;;;;5044833;28;20086;-77
2023/09/16 06:46:14;;;;;;;1999.90;999.90;;;20.30;99.90;;;;;;5037599;28;20473;-77
2023/09/16 06:48:39;;;;;;;1999.90;999.90;;;20.30;99.90;;;;;;5050128;28;20501;-73
2023/09/16 06:51:05;;;;;;;1999.90;999.90;;;20.40;99.90;;;;;;5053017;28;20036;-72
2023/09/16 06:53:33;;;;;;;1999.90;999.90;;;20.30;99.90;;;;;;5052619;28;20099;-77
2023/09/16 06:55:59;;;;;;;1999.90;999.90;;;20.30;99.90;;;;;;5052992;28;20013;-78
2023/09/16 06:58:24;;;;;;;1999.90;999.90;;;20.40;99.90;;;;;;5051904;28;20043;-78
2023/09/16 07:00:50;;;;;;;1999.90;999.90;;;20.40;99.90;;;;;;5052598;28;20053;-78
2023/09/16 07:03:16;;;;;;;1999.90;999.90;;;20.50;99.90;;;;;;5045274;28;20036;-77
2023/09/16 07:05:48;;;;;;;1999.90;999.90;;;20.50;99.90;;;;;;5052129;28;20048;-72
2023/09/16 07:08:15;;;;;;;;;;;20.50;99.90;;;;;;5048109;28;20092;-73
2023/09/16 07:10:40;;;;;;;1999.90;999.90;;;20.60;99.90;;;;;;5044809;28;19909;-78
2023/09/16 07:13:06;;;;;;;1999.90;999.90;;;20.60;99.90;;;;;;5052761;28;20025;-73
2023/09/16 07:15:31;;;;;;;1999.90;999.90;;;20.80;99.90;;;;;;5052627;28;20100;-78
2023/09/16 07:17:57;;;;;;;1999.90;999.90;;;20.90;99.90;;;;;;5052529;28;20025;-73
2023/09/16 07:20:23;;;;;;;1999.90;999.90;;;21.00;99.90;;;;;;5044749;28;20050;-73
2023/09/16 07:22:50;;;;;;;1999.90;999.90;;;21.00;99.90;;;;;;5042975;28;20044;-78
2023/09/16 07:25:16;;;;;;;1999.90;999.90;;;21.10;99.90;;;;;;5041238;28;20017;-78
2023/09/16 07:27:41;;;;;;;1999.90;999.90;;;21.20;99.90;;;;;;5032586;28;20480;-73
2023/09/16 07:30:07;;;;;;;1999.90;999.90;;;21.10;99.90;;;;;;5032410;28;20026;-72
2023/09/16 07:32:33;;;;;;;1999.90;999.90;;;21.10;99.90;;;;;;5051743;28;20092;-72
2023/09/16 07:34:58;;;;;;;1999.90;999.90;;;21.10;99.90;;;;;;5052230;28;20102;-77
2023/09/16 07:37:24;;;;;;;1999.90;999.90;;;21.20;99.90;;;;;;5052437;28;20024;-78
2023/09/16 07:39:51;;;;;;;1999.90;999.90;;;21.10;99.90;;;;;;5052237;28;20392;-78
2023/09/16 07:42:16;;;;;;;1999.90;999.90;;;21.20;99.90;;;;;;5052331;28;20033;-78
2023/09/16 07:44:42;;;;;;;1999.90;999.90;;;21.40;99.90;;;;;;5052239;28;20025;-73
2023/09/16 07:47:07;;;;;;;1999.90;999.90;;;21.40;99.90;;;;;;5055473;28;20024;-72
2023/09/16 07:49:33;;;;;;;1999.90;999.90;;;21.60;99.90;;;;;;5055986;28;20036;-78
2023/09/16 07:51:59;;;;;;;1999.90;999.90;;;22.80;99.90;;;;;;5056181;28;20457;-73
2023/09/16 07:54:24;;;;;;;1999.90;999.90;;;24.60;99.90;;;;;;5055986;28;20479;-73
2023/09/16 07:56:50;;;;;;;1999.90;999.90;;;25.60;99.90;;;;;;5050893;28;20024;-73
2023/09/16 07:59:19;;;;;;;1999.90;999.90;;;24.70;99.90;;;;;;5046635;28;20083;-73
2023/09/16 08:01:45;;;;;;;1999.90;999.90;;;24.00;99.90;;;;;;5056207;28;20104;-78
2023/09/16 08:04:11;;;;;;;1999.90;999.90;;;23.10;99.90;;;;;;5055475;28;20131;-78
2023/09/16 08:06:36;;;;;;;1999.90;999.90;;;22.60;99.90;;;;;;5055340;28;20029;-78
2023/09/16 08:09:02;;;;;;;1999.90;999.90;;;22.40;99.90;;;;;;5045632;28;20034;-73
2023/09/16 08:11:28;;;;;;;1999.90;999.90;;;22.20;99.90;;;;;;5053914;28;20100;-73
2023/09/16 08:13:53;;;;;;;1999.90;999.90;;;22.20;99.90;;;;;;5055751;28;20049;-78
2023/09/16 08:16:19;;;;;;;1999.90;999.90;;;23.30;99.90;;;;;;5055523;28;20025;-78
2023/09/16 08:18:45;;;;;;;1999.90;999.90;;;24.80;99.90;;;;;;5055129;28;20032;-78
2023/09/16 08:21:11;;;;;;;1999.90;999.90;;;26.70;99.90;;;;;;5055687;28;20159;-78
2023/09/16 08:23:36;;;;;;;1999.90;999.90;;;28.60;99.90;;;;;;5047248;28;20049;-74
2023/09/16 08:26:02;;;;;;;1999.90;999.90;;;28.10;99.90;;;;;;5038062;28;20068;-74
2023/09/16 08:28:28;;;;;;;1999.90;999.90;;;26.70;99.90;;;;;;5035245;28;20030;-77
2023/09/16 08:30:54;;;;;;;1999.90;999.90;;;25.20;99.90;;;;;;5041157;28;20024;-74
2023/09/16 08:33:19;;;;;;;1999.90;999.90;;;25.90;99.90;;;;;;5055072;28;20397;-75
2023/09/16 08:35:45;;;;;;;1999.90;999.90;;;27.10;99.90;;;;;;5054820;28;20035;-74
2023/09/16 08:38:10;;;;;;;1999.90;999.90;;;27.90;99.90;;;;;;5055458;28;20375;-78
2023/09/16 08:40:36;;;;;;;1999.90;999.90;;;27.70;99.90;;;;;;5054903;28;20028;-78
2023/09/16 08:43:11;;;;;;;1999.90;999.90;;;27.60;99.90;;;;;;5054905;28;20083;-77
2023/09/16 08:45:43;;;;;;;1999.90;999.90;;;25.90;99.90;;;;;;5055115;28;20029;-77
2023/09/16 08:48:20;;;;;;;1999.90;999.90;;;25.10;99.90;;;;;;5054757;28;20108;-74
2023/09/16 08:50:49;;;;;;;1999.90;999.90;;;25.40;99.90;;;;;;5054729;28;20383;-77
2023/09/16 08:53:16;;;;;;;1999.90;999.90;;;26.00;99.90;;;;;;5054695;28;20025;-77
2023/09/16 08:55:42;;;;;;;1999.90;999.90;;;26.90;99.90;;;;;;5054890;28;20067;-77
2023/09/16 08:58:09;;;;;;;1999.90;999.90;;;26.60;99.90;;;;;;5041040;28;20079;-77
2023/09/16 09:00:38;;;;;;;1999.90;999.90;;;25.20;99.90;;;;;;5053658;28;20048;-77
2023/09/16 09:03:05;;;;;;;1999.90;999.90;;;24.30;99.90;;;;;;5054608;28;20021;-74
2023/09/16 09:05:34;;;;;;;1999.90;999.90;;;24.30;99.90;;;;;;5054374;28;20577;-74
2023/09/16 09:07:59;;;;;;;1999.90;999.90;;;24.60;99.90;;;;;;5051039;28;20039;-77
2023/09/16 09:10:26;;;;;;;1999.90;999.90;;;25.10;99.90;;;;;;5045575;28;20101;-78
2023/09/16 09:12:52;;;;;;;1999.90;999.90;;;24.80;99.90;;;;;;5054138;28;20032;-74
2023/09/16 09:15:18;;;;;;;1999.90;999.90;;;25.70;99.90;;;;;;5054212;28;20024;-74
2023/09/16 09:17:50;;;;;;;1999.90;999.90;;;27.10;99.90;;;;;;5054436;28;20029;-74
2023/09/16 09:20:22;;;;;;;1999.90;999.90;;;25.90;99.90;;;;;;5054239;28;20488;-77
2023/09/16 09:22:50;;;;;;;1999.90;999.90;;;25.10;99.90;;;;;;5047166;28;20091;-77
2023/09/16 09:25:21;;;;;;;1999.90;999.90;;;24.60;99.90;;;;;;5042939;28;20028;-74
2023/09/16 09:27:49;;;;;;;1999.90;999.90;;;25.10;99.90;;;;;;5034446;28;20033;-74
2023/09/16 09:30:15;;;;;;;1999.90;999.90;;;24.70;99.90;;;;;;5034452;28;20059;-74
2023/09/16 09:32:44;;;;;;;1999.90;999.90;;;25.40;99.90;;;;;;5054183;28;20080;-77
2023/09/16 09:35:11;;;;;;;1999.90;999.90;;;26.00;99.90;;;;;;5053852;28;20028;-74
2023/09/16 09:37:40;;;;;;;1999.90;999.90;;;26.20;99.90;;;;;;5053747;28;20051;-77
2023/09/16 09:40:12;;;;;;;1999.90;999.90;;;25.50;99.90;;;;;;5053577;28;20067;-73
2023/09/16 09:42:56;;;;;;;1999.90;999.90;;;25.20;99.90;;;;;;5053809;28;20032;-74
2023/09/16 09:45:24;;;;;;;1999.90;999.90;;;25.40;99.90;;;;;;5052483;28;20056;-77
2023/09/16 09:47:51;;;;;;;1999.90;999.90;;;25.40;99.90;;;;;;5053877;28;20040;-77
2023/09/16 09:50:18;;;;;;;1999.90;999.90;;;25.30;99.90;;;;;;5053420;28;20483;-77
2023/09/16 09:52:52;;;;;;;1999.90;999.90;;;25.30;99.90;;;;;;5053598;28;20051;-77
2023/09/16 09:55:19;;;;;;;1999.90;999.90;;;25.10;99.90;;;;;;5052741;28;20028;-73
2023/09/16 09:57:46;;;;;;;1999.90;999.90;;;24.80;99.90;;;;;;5053636;28;20495;-74
2023/09/16 10:00:15;;;;;;;1999.90;999.90;;;25.10;99.90;;;;;;5053431;28;20040;-73
2023/09/16 10:02:41;;;;;;;1999.90;999.90;;;25.30;99.90;;;;;;5053539;28;20107;-77
2023/09/16 10:05:11;;;;;;;1999.90;999.90;;;25.10;99.90;;;;;;5052997;28;20175;-77
2023/09/16 10:07:43;;;;;;;1999.90;999.90;;;25.00;99.90;;;;;;5051227;28;20516;-74
2023/09/16 10:10:22;;;;;;;1999.90;999.90;;;24.80;99.90;;;;;;5041683;28;20099;-76
2023/09/16 10:12:51;;;;;;;1999.90;999.90;;;24.80;99.90;;;;;;5033177;28;20339;-77
2023/09/16 10:15:21;;;;;;;1999.90;999.90;;;24.80;99.90;;;;;;5033321;28;20022;-77
2023/09/16 10:17:49;;;;;;;1999.90;999.90;;;24.90;99.90;;;;;;5032781;28;20149;-77
2023/09/16 10:20:16;;;;;;;1999.90;999.90;;;25.00;99.90;;;;;;5033242;28;20029;-77
2023/09/16 10:22:43;;;;;;;1999.90;999.90;;;25.20;99.90;;;;;;5036454;28;20120;-73
2023/09/16 10:25:11;;;;;;;1999.90;999.90;;;25.10;99.90;;;;;;5041881;28;20155;-77
2023/09/16 10:27:47;;;;;;;1999.90;999.90;;;24.90;99.90;;;;;;5033136;28;20492;-73
2023/09/16 10:30:15;;;;;;;1999.90;999.90;;;25.10;99.90;;;;;;5033245;28;20075;-77
2023/09/16 10:32:41;;;;;;;1999.90;999.90;;;25.00;99.90;;;;;;5052893;28;20047;-78
2023/09/16 10:35:08;;;;;;;1999.90;999.90;;;24.80;99.90;;;;;;5052878;28;20492;-73
2023/09/16 10:37:36;;;;;;;1999.90;999.90;;;24.60;99.90;;;;;;5052911;28;20021;-78
2023/09/16 10:40:04;;;;;;;1999.90;999.90;;;24.50;99.90;;;;;;5053117;28;20086;-78
2023/09/16 10:42:33;;;;;;;1999.90;999.90;;;24.80;99.90;;;;;;5052746;28;20021;-78
2023/09/16 10:45:02;;;;;;;1999.90;999.90;;;25.20;99.90;;;;;;5052871;28;20554;-73
2023/09/16 10:47:28;;;;;;;1999.90;999.90;;;25.70;99.90;;;;;;5052771;28;20025;-73
2023/09/16 10:49:54;;;;;;;1999.90;999.90;;;26.10;99.90;;;;;;5052771;28;20048;-77
2023/09/16 10:52:38;;;;;;;1999.90;999.90;;;26.40;99.90;;;;;;5051475;28;20021;-77
2023/09/16 10:55:13;;;;;;;1999.90;999.90;;;26.30;99.90;;;;;;5052695;28;20028;-77
2023/09/16 10:57:57;;;;;;;1999.90;999.90;;;26.00;99.90;;;;;;5052716;28;20049;-77
2023/09/16 11:00:26;;;;;;;1999.90;999.90;;;25.60;99.90;;;;;;5052493;28;20021;-74
2023/09/16 11:03:01;;;;;;;1999.90;999.90;;;25.50;99.90;;;;;;5052950;28;20033;-77
2023/09/16 11:05:27;;;;;;;1999.90;999.90;;;25.60;99.90;;;;;;5032515;28;20057;-77
2023/09/16 11:07:55;;;;;;;1999.90;999.90;;;25.60;99.90;;;;;;5034500;28;20033;-77
2023/09/16 11:10:21;;;;;;;1999.90;999.90;;;25.50;99.90;;;;;;5043968;28;20083;-77
2023/09/16 11:12:48;;;;;;;1999.90;999.90;;;25.30;99.90;;;;;;5052432;28;20543;-73
2023/09/16 11:15:15;;;;;;;1999.90;999.90;;;25.30;99.90;;;;;;5052444;28;20373;-76
2023/09/16 11:17:40;;;;;;;1999.90;999.90;;;25.60;99.90;;;;;;5052398;28;20040;-78
2023/09/16 11:20:28;;;;;;;1999.90;999.90;;;25.60;99.90;;;;;;5052408;28;20511;-73
2023/09/16 11:22:54;;;;;;;1999.90;999.90;;;26.00;99.90;;;;;;5048642;28;20113;-78
2023/09/16 11:25:20;;;;;;;1999.90;999.90;;;26.10;99.90;;;;;;5045454;28;20100;-73
2023/09/16 11:27:46;;;;;;;1999.90;999.90;;;26.10;99.90;;;;;;5036563;28;20116;-73
2023/09/16 11:30:13;;;;;;;1999.90;999.90;;;26.10;99.90;;;;;;5036385;28;20037;-77
2023/09/16 11:32:59;;;;;;;1999.90;999.90;;;26.20;99.90;;;;;;5056162;28;20104;-77
2023/09/16 11:35:28;;;;;;;1999.90;999.90;;;26.40;99.90;;;;;;5052121;28;20106;-77
2023/09/16 11:37:55;;;;;;;1999.90;999.90;;;26.40;99.90;;;;;;5056029;28;20104;-74
2023/09/16 11:40:31;;;;;;;1999.90;999.90;;;26.10;99.90;;;;;;5056299;28;20032;-73
2023/09/16 11:42:58;;;;;;;1999.90;999.90;;;25.90;99.90;;;;;;5056180;28;20029;-76
2023/09/16 11:45:25;;;;;;;1999.90;999.90;;;25.70;99.90;;;;;;5056154;28;20108;-77
2023/09/16 11:47:52;;;;;;;1999.90;999.90;;;25.80;99.90;;;;;;5055924;28;20029;-76
2023/09/16 11:50:25;;;;;;;1999.90;999.90;;;25.80;99.90;;;;;;5054356;28;20096;-74
2023/09/16 11:52:52;;;;;;;1999.90;999.90;;;26.00;99.90;;;;;;5055838;28;20024;-74
2023/09/16 11:55:18;;;;;;;1999.90;999.90;;;26.60;99.90;;;;;;5055837;28;20419;-78
2023/09/16 11:57:46;;;;;;;1999.90;999.90;;;27.00;99.90;;;;;;5055939;28;20024;-77